sensor_id;sensor_type;location;lat;lon;timestamp;P1;durP1;ratioP1;P2;durP2;ratioP2
41693;SDS011;27377;50.666;9.150;2022-10-04T00:04:16;6.03;;;3.93;;
41693;SDS011;27377;50.666;9.150;2022-10-04T00:12:22;5.47;;;3.17;;
41693;SDS011;27377;50.666;9.150;2022-10-04T00:14:50;6.57;;;3.25;;
41693;SDS011;27377;50.666;9.150;2022-10-04T00:17:25;6.50;;;3.50;;
41693;SDS011;27377;50.666;9.150;2022-10-04T00:19:54;8.23;;;3.92;;
41693;SDS011;27377;50.666;9.150;2022-10-04T00:22:23;7.50;;;4.05;;
41693;SDS011;27377;50.666;9.150;2022-10-04T00:27:31;5.07;;;2.75;;
41693;SDS011;27377;50.666;9.150;2022-10-04T00:32:30;4.80;;;2.80;;
41693;SDS011;27377;50.666;9.150;2022-10-04T00:37:52;6.05;;;2.85;;
41693;SDS011;27377;50.666;9.150;2022-10-04T00:40:25;7.20;;;3.10;;
41693;SDS011;27377;50.666;9.150;2022-10-04T00:42:58;5.53;;;3.20;;
41693;SDS011;27377;50.666;9.150;2022-10-04T00:45:31;4.72;;;3.00;;
41693;SDS011;27377;50.666;9.150;2022-10-04T00:50:28;4.60;;;2.60;;
41693;SDS011;27377;50.666;9.150;2022-10-04T00:53:03;9.52;;;5.78;;
41693;SDS011;27377;50.666;9.150;2022-10-04T00:55:44;11.70;;;7.63;;
41693;SDS011;27377;50.666;9.150;2022-10-04T00:58:28;6.82;;;3.20;;
41693;SDS011;27377;50.666;9.150;2022-10-04T01:01:02;6.95;;;4.18;;
41693;SDS011;27377;50.666;9.150;2022-10-04T01:05:58;6.20;;;3.70;;
41693;SDS011;27377;50.666;9.150;2022-10-04T01:08:31;6.65;;;3.88;;
41693;SDS011;27377;50.666;9.150;2022-10-04T01:11:05;9.10;;;3.77;;
41693;SDS011;27377;50.666;9.150;2022-10-04T01:13:38;7.90;;;4.00;;
41693;SDS011;27377;50.666;9.150;2022-10-04T01:16:10;6.88;;;3.90;;
41693;SDS011;27377;50.666;9.150;2022-10-04T01:18:41;8.67;;;4.23;;
41693;SDS011;27377;50.666;9.150;2022-10-04T01:26:38;6.82;;;3.28;;
41693;SDS011;27377;50.666;9.150;2022-10-04T01:29:25;7.07;;;3.35;;
41693;SDS011;27377;50.666;9.150;2022-10-04T01:31:53;7.32;;;3.50;;
41693;SDS011;27377;50.666;9.150;2022-10-04T01:34:21;4.88;;;3.30;;
41693;SDS011;27377;50.666;9.150;2022-10-04T01:36:49;8.52;;;4.20;;
41693;SDS011;27377;50.666;9.150;2022-10-04T01:39:18;10.85;;;4.50;;
41693;SDS011;27377;50.666;9.150;2022-10-04T01:42:04;7.28;;;3.45;;
41693;SDS011;27377;50.666;9.150;2022-10-04T01:44:47;7.30;;;3.70;;
41693;SDS011;27377;50.666;9.150;2022-10-04T01:47:37;8.38;;;4.05;;
41693;SDS011;27377;50.666;9.150;2022-10-04T01:50:10;7.67;;;3.90;;
41693;SDS011;27377;50.666;9.150;2022-10-04T01:52:41;6.93;;;3.60;;
41693;SDS011;27377;50.666;9.150;2022-10-04T01:55:13;7.73;;;3.60;;
41693;SDS011;27377;50.666;9.150;2022-10-04T01:57:47;6.60;;;3.57;;
41693;SDS011;27377;50.666;9.150;2022-10-04T02:00:18;6.53;;;3.40;;
41693;SDS011;27377;50.666;9.150;2022-10-04T02:02:59;8.43;;;4.10;;
41693;SDS011;27377;50.666;9.150;2022-10-04T02:05:31;8.45;;;3.97;;
41693;SDS011;27377;50.666;9.150;2022-10-04T02:08:03;8.45;;;3.83;;
41693;SDS011;27377;50.666;9.150;2022-10-04T02:10:32;8.05;;;3.78;;
41693;SDS011;27377;50.666;9.150;2022-10-04T02:13:02;8.23;;;4.10;;
41693;SDS011;27377;50.666;9.150;2022-10-04T02:15:35;8.18;;;4.10;;
41693;SDS011;27377;50.666;9.150;2022-10-04T02:18:04;7.00;;;3.85;;
41693;SDS011;27377;50.666;9.150;2022-10-04T02:20:45;5.97;;;3.00;;
41693;SDS011;27377;50.666;9.150;2022-10-04T02:23:12;6.82;;;3.20;;
41693;SDS011;27377;50.666;9.150;2022-10-04T02:25:42;6.95;;;3.40;;
41693;SDS011;27377;50.666;9.150;2022-10-04T02:28:11;6.27;;;3.60;;
41693;SDS011;27377;50.666;9.150;2022-10-04T02:30:40;9.68;;;3.78;;
41693;SDS011;27377;50.666;9.150;2022-10-04T02:33:08;7.05;;;3.70;;
41693;SDS011;27377;50.666;9.150;2022-10-04T02:35:36;6.80;;;3.60;;
41693;SDS011;27377;50.666;9.150;2022-10-04T02:38:09;7.22;;;3.83;;
41693;SDS011;27377;50.666;9.150;2022-10-04T02:40:49;5.07;;;3.30;;
41693;SDS011;27377;50.666;9.150;2022-10-04T02:43:30;10.00;;;3.60;;
41693;SDS011;27377;50.666;9.150;2022-10-04T02:46:26;9.07;;;3.70;;
41693;SDS011;27377;50.666;9.150;2022-10-04T02:48:57;8.00;;;3.30;;
41693;SDS011;27377;50.666;9.150;2022-10-04T02:51:37;5.30;;;3.20;;
41693;SDS011;27377;50.666;9.150;2022-10-04T02:57:02;4.70;;;3.20;;
41693;SDS011;27377;50.666;9.150;2022-10-04T02:59:29;6.63;;;4.13;;
41693;SDS011;27377;50.666;9.150;2022-10-04T03:01:57;10.27;;;3.80;;
41693;SDS011;27377;50.666;9.150;2022-10-04T03:04:27;7.53;;;3.90;;
41693;SDS011;27377;50.666;9.150;2022-10-04T03:07:04;6.20;;;3.83;;
41693;SDS011;27377;50.666;9.150;2022-10-04T03:09:32;7.68;;;3.70;;
41693;SDS011;27377;50.666;9.150;2022-10-04T03:12:00;7.25;;;3.22;;
41693;SDS011;27377;50.666;9.150;2022-10-04T03:14:28;7.90;;;3.40;;
41693;SDS011;27377;50.666;9.150;2022-10-04T03:16:57;4.97;;;3.43;;
41693;SDS011;27377;50.666;9.150;2022-10-04T03:19:25;7.22;;;3.30;;
41693;SDS011;27377;50.666;9.150;2022-10-04T03:21:55;6.07;;;3.53;;
41693;SDS011;27377;50.666;9.150;2022-10-04T03:24:27;6.72;;;3.40;;
41693;SDS011;27377;50.666;9.150;2022-10-04T03:26:59;6.75;;;3.53;;
41693;SDS011;27377;50.666;9.150;2022-10-04T03:29:28;6.88;;;3.30;;
41693;SDS011;27377;50.666;9.150;2022-10-04T03:31:58;5.43;;;3.50;;
41693;SDS011;27377;50.666;9.150;2022-10-04T03:34:27;7.00;;;3.40;;
41693;SDS011;27377;50.666;9.150;2022-10-04T03:37:00;5.80;;;2.90;;
41693;SDS011;27377;50.666;9.150;2022-10-04T03:39:28;8.75;;;2.90;;
41693;SDS011;27377;50.666;9.150;2022-10-04T03:42:06;4.95;;;2.60;;
41693;SDS011;27377;50.666;9.150;2022-10-04T03:44:36;5.30;;;2.80;;
41693;SDS011;27377;50.666;9.150;2022-10-04T03:47:06;7.68;;;3.53;;
41693;SDS011;27377;50.666;9.150;2022-10-04T03:49:36;7.10;;;4.18;;
41693;SDS011;27377;50.666;9.150;2022-10-04T03:52:04;4.93;;;2.65;;
41693;SDS011;27377;50.666;9.150;2022-10-04T03:54:32;6.25;;;3.35;;
41693;SDS011;27377;50.666;9.150;2022-10-04T03:56:59;9.32;;;3.55;;
41693;SDS011;27377;50.666;9.150;2022-10-04T03:59:26;5.97;;;3.80;;
41693;SDS011;27377;50.666;9.150;2022-10-04T04:01:58;7.15;;;3.30;;
41693;SDS011;27377;50.666;9.150;2022-10-04T04:04:46;5.72;;;3.20;;
41693;SDS011;27377;50.666;9.150;2022-10-04T04:07:35;8.43;;;3.35;;
41693;SDS011;27377;50.666;9.150;2022-10-04T04:10:25;5.75;;;3.50;;
41693;SDS011;27377;50.666;9.150;2022-10-04T04:15:27;8.80;;;3.80;;
41693;SDS011;27377;50.666;9.150;2022-10-04T04:17:55;7.30;;;3.60;;
41693;SDS011;27377;50.666;9.150;2022-10-04T04:20:36;6.10;;;3.90;;
41693;SDS011;27377;50.666;9.150;2022-10-04T04:23:22;7.60;;;4.05;;
41693;SDS011;27377;50.666;9.150;2022-10-04T04:25:52;10.05;;;4.20;;
41693;SDS011;27377;50.666;9.150;2022-10-04T04:31:02;8.10;;;4.13;;
41693;SDS011;27377;50.666;9.150;2022-10-04T04:33:41;10.73;;;4.65;;
41693;SDS011;27377;50.666;9.150;2022-10-04T04:36:11;9.13;;;4.40;;
41693;SDS011;27377;50.666;9.150;2022-10-04T04:38:39;7.20;;;4.20;;
41693;SDS011;27377;50.666;9.150;2022-10-04T04:41:25;10.17;;;4.53;;
41693;SDS011;27377;50.666;9.150;2022-10-04T04:43:55;10.65;;;4.95;;
41693;SDS011;27377;50.666;9.150;2022-10-04T04:46:21;8.63;;;4.63;;
41693;SDS011;27377;50.666;9.150;2022-10-04T04:48:48;8.30;;;4.57;;
41693;SDS011;27377;50.666;9.150;2022-10-04T04:51:20;8.57;;;4.30;;
41693;SDS011;27377;50.666;9.150;2022-10-04T04:53:48;7.78;;;4.13;;
41693;SDS011;27377;50.666;9.150;2022-10-04T04:56:16;8.85;;;3.70;;
41693;SDS011;27377;50.666;9.150;2022-10-04T04:58:45;9.45;;;4.60;;
41693;SDS011;27377;50.666;9.150;2022-10-04T05:04:35;8.38;;;4.68;;
41693;SDS011;27377;50.666;9.150;2022-10-04T05:06:36;8.93;;;5.18;;
41693;SDS011;27377;50.666;9.150;2022-10-04T05:09:39;8.35;;;4.38;;
41693;SDS011;27377;50.666;9.150;2022-10-04T05:12:16;8.68;;;4.57;;
41693;SDS011;27377;50.666;9.150;2022-10-04T05:14:47;7.80;;;4.60;;
41693;SDS011;27377;50.666;9.150;2022-10-04T05:17:19;6.80;;;4.60;;
41693;SDS011;27377;50.666;9.150;2022-10-04T05:19:50;7.97;;;4.90;;
41693;SDS011;27377;50.666;9.150;2022-10-04T05:22:20;8.10;;;4.78;;
41693;SDS011;27377;50.666;9.150;2022-10-04T05:24:49;10.73;;;5.50;;
41693;SDS011;27377;50.666;9.150;2022-10-04T05:27:37;10.70;;;6.72;;
41693;SDS011;27377;50.666;9.150;2022-10-04T05:33:00;10.73;;;6.00;;
41693;SDS011;27377;50.666;9.150;2022-10-04T05:35:37;9.95;;;5.40;;
41693;SDS011;27377;50.666;9.150;2022-10-04T05:38:27;10.07;;;5.35;;
41693;SDS011;27377;50.666;9.150;2022-10-04T05:43:48;7.90;;;4.90;;
41693;SDS011;27377;50.666;9.150;2022-10-04T05:48:40;7.80;;;5.30;;
41693;SDS011;27377;50.666;9.150;2022-10-04T05:51:23;9.63;;;5.07;;
41693;SDS011;27377;50.666;9.150;2022-10-04T05:53:54;8.82;;;4.95;;
41693;SDS011;27377;50.666;9.150;2022-10-04T05:58:58;10.70;;;4.90;;
41693;SDS011;27377;50.666;9.150;2022-10-04T06:01:55;8.38;;;4.93;;
41693;SDS011;27377;50.666;9.150;2022-10-04T06:04:44;8.50;;;5.30;;
41693;SDS011;27377;50.666;9.150;2022-10-04T06:07:29;11.33;;;5.23;;
41693;SDS011;27377;50.666;9.150;2022-10-04T06:18:24;8.63;;;5.40;;
41693;SDS011;27377;50.666;9.150;2022-10-04T06:24:09;9.45;;;5.38;;
41693;SDS011;27377;50.666;9.150;2022-10-04T06:26:41;11.57;;;5.93;;
41693;SDS011;27377;50.666;9.150;2022-10-04T06:29:11;9.03;;;5.80;;
41693;SDS011;27377;50.666;9.150;2022-10-04T06:37:23;8.90;;;5.40;;
41693;SDS011;27377;50.666;9.150;2022-10-04T06:45:37;13.27;;;6.03;;
41693;SDS011;27377;50.666;9.150;2022-10-04T07:02:06;11.80;;;6.97;;
41693;SDS011;27377;50.666;9.150;2022-10-04T07:04:45;16.00;;;8.57;;
41693;SDS011;27377;50.666;9.150;2022-10-04T07:07:31;17.38;;;9.60;;
41693;SDS011;27377;50.666;9.150;2022-10-04T07:10:02;21.10;;;11.90;;
41693;SDS011;27377;50.666;9.150;2022-10-04T07:12:47;23.63;;;12.23;;
41693;SDS011;27377;50.666;9.150;2022-10-04T07:15:22;18.33;;;10.05;;
41693;SDS011;27377;50.666;9.150;2022-10-04T07:17:52;15.88;;;9.32;;
41693;SDS011;27377;50.666;9.150;2022-10-04T07:20:26;15.67;;;8.30;;
41693;SDS011;27377;50.666;9.150;2022-10-04T07:23:02;14.20;;;8.23;;
41693;SDS011;27377;50.666;9.150;2022-10-04T07:25:36;15.05;;;7.97;;
41693;SDS011;27377;50.666;9.150;2022-10-04T07:31:03;15.85;;;7.85;;
41693;SDS011;27377;50.666;9.150;2022-10-04T07:33:48;15.02;;;8.10;;
41693;SDS011;27377;50.666;9.150;2022-10-04T07:36:23;12.38;;;8.10;;
41693;SDS011;27377;50.666;9.150;2022-10-04T07:38:52;12.52;;;7.53;;
41693;SDS011;27377;50.666;9.150;2022-10-04T07:41:27;16.20;;;10.35;;
41693;SDS011;27377;50.666;9.150;2022-10-04T07:44:00;23.02;;;15.27;;
41693;SDS011;27377;50.666;9.150;2022-10-04T07:49:46;16.35;;;10.25;;
41693;SDS011;27377;50.666;9.150;2022-10-04T07:58:01;11.48;;;7.45;;
41693;SDS011;27377;50.666;9.150;2022-10-04T08:11:24;9.70;;;6.27;;
41693;SDS011;27377;50.666;9.150;2022-10-04T08:17:28;10.40;;;6.32;;
41693;SDS011;27377;50.666;9.150;2022-10-04T08:20:19;11.32;;;6.63;;
41693;SDS011;27377;50.666;9.150;2022-10-04T08:23:09;12.30;;;6.78;;
41693;SDS011;27377;50.666;9.150;2022-10-04T08:31:39;12.07;;;6.27;;
41693;SDS011;27377;50.666;9.150;2022-10-04T08:34:25;11.70;;;6.60;;
41693;SDS011;27377;50.666;9.150;2022-10-04T08:37:35;14.13;;;6.53;;
41693;SDS011;27377;50.666;9.150;2022-10-04T09:05:39;10.57;;;4.70;;
41693;SDS011;27377;50.666;9.150;2022-10-04T09:17:17;11.07;;;4.70;;
41693;SDS011;27377;50.666;9.150;2022-10-04T09:22:46;9.13;;;3.75;;
41693;SDS011;27377;50.666;9.150;2022-10-04T09:25:23;8.73;;;3.35;;
41693;SDS011;27377;50.666;9.150;2022-10-04T09:33:50;8.63;;;3.40;;
41693;SDS011;27377;50.666;9.150;2022-10-04T09:36:50;8.90;;;3.10;;
41693;SDS011;27377;50.666;9.150;2022-10-04T09:39:41;8.02;;;3.45;;
41693;SDS011;27377;50.666;9.150;2022-10-04T09:53:40;6.28;;;2.70;;
41693;SDS011;27377;50.666;9.150;2022-10-04T09:56:31;10.20;;;2.88;;
41693;SDS011;27377;50.666;9.150;2022-10-04T09:59:17;8.07;;;2.80;;
41693;SDS011;27377;50.666;9.150;2022-10-04T10:04:50;7.25;;;2.80;;
41693;SDS011;27377;50.666;9.150;2022-10-04T10:08:10;8.13;;;2.80;;
41693;SDS011;27377;50.666;9.150;2022-10-04T10:11:26;7.53;;;2.65;;
41693;SDS011;27377;50.666;9.150;2022-10-04T10:14:40;5.53;;;2.35;;
41693;SDS011;27377;50.666;9.150;2022-10-04T10:17:43;8.55;;;2.33;;
41693;SDS011;27377;50.666;9.150;2022-10-04T10:25:45;6.78;;;2.50;;
41693;SDS011;27377;50.666;9.150;2022-10-04T10:28:56;6.95;;;2.60;;
41693;SDS011;27377;50.666;9.150;2022-10-04T10:37:12;5.88;;;2.33;;
41693;SDS011;27377;50.666;9.150;2022-10-04T10:45:25;5.75;;;2.42;;
41693;SDS011;27377;50.666;9.150;2022-10-04T10:48:13;5.95;;;2.30;;
41693;SDS011;27377;50.666;9.150;2022-10-04T10:53:48;6.93;;;2.40;;
41693;SDS011;27377;50.666;9.150;2022-10-04T10:56:53;6.47;;;2.47;;
41693;SDS011;27377;50.666;9.150;2022-10-04T11:45:51;7.82;;;2.72;;
41693;SDS011;27377;50.666;9.150;2022-10-04T11:56:57;6.57;;;2.42;;
41693;SDS011;27377;50.666;9.150;2022-10-04T12:05:29;7.40;;;2.60;;
41693;SDS011;27377;50.666;9.150;2022-10-04T12:19:47;4.97;;;1.90;;
41693;SDS011;27377;50.666;9.150;2022-10-04T12:22:28;5.55;;;2.15;;
41693;SDS011;27377;50.666;9.150;2022-10-04T12:25:34;5.88;;;2.10;;
41693;SDS011;27377;50.666;9.150;2022-10-04T12:31:35;6.30;;;2.20;;
41693;SDS011;27377;50.666;9.150;2022-10-04T12:42:21;7.30;;;2.10;;
41693;SDS011;27377;50.666;9.150;2022-10-04T12:45:25;5.80;;;2.30;;
41693;SDS011;27377;50.666;9.150;2022-10-04T12:53:32;5.70;;;2.33;;
41693;SDS011;27377;50.666;9.150;2022-10-04T13:04:46;6.20;;;2.50;;
41693;SDS011;27377;50.666;9.150;2022-10-04T13:13:07;6.95;;;2.88;;
41693;SDS011;27377;50.666;9.150;2022-10-04T13:15:51;9.48;;;2.80;;
41693;SDS011;27377;50.666;9.150;2022-10-04T13:27:20;4.57;;;2.30;;
41693;SDS011;27377;50.666;9.150;2022-10-04T13:32:46;5.03;;;2.30;;
41693;SDS011;27377;50.666;9.150;2022-10-04T13:35:25;7.20;;;2.67;;
41693;SDS011;27377;50.666;9.150;2022-10-04T13:46:14;5.57;;;2.42;;
41693;SDS011;27377;50.666;9.150;2022-10-04T13:49:12;6.68;;;2.67;;
41693;SDS011;27377;50.666;9.150;2022-10-04T13:52:11;7.97;;;2.70;;
41693;SDS011;27377;50.666;9.150;2022-10-04T13:55:18;5.70;;;2.40;;
41693;SDS011;27377;50.666;9.150;2022-10-04T13:58:30;6.18;;;2.88;;
41693;SDS011;27377;50.666;9.150;2022-10-04T14:04:12;8.00;;;2.50;;
41693;SDS011;27377;50.666;9.150;2022-10-04T14:30:09;5.03;;;2.25;;
41693;SDS011;27377;50.666;9.150;2022-10-04T14:42:17;6.87;;;2.93;;
41693;SDS011;27377;50.666;9.150;2022-10-04T14:44:44;8.23;;;3.17;;
41693;SDS011;27377;50.666;9.150;2022-10-04T14:47:35;7.87;;;3.00;;
41693;SDS011;27377;50.666;9.150;2022-10-04T14:50:19;9.45;;;3.30;;
41693;SDS011;27377;50.666;9.150;2022-10-04T14:55:53;7.07;;;2.83;;
41693;SDS011;27377;50.666;9.150;2022-10-04T15:01:37;6.00;;;2.50;;
41693;SDS011;27377;50.666;9.150;2022-10-04T15:04:21;5.05;;;2.55;;
41693;SDS011;27377;50.666;9.150;2022-10-04T15:06:55;4.82;;;2.40;;
41693;SDS011;27377;50.666;9.150;2022-10-04T15:15:30;5.68;;;2.40;;
41693;SDS011;27377;50.666;9.150;2022-10-04T15:18:26;7.80;;;2.30;;
41693;SDS011;27377;50.666;9.150;2022-10-04T15:23:42;6.33;;;2.30;;
41693;SDS011;27377;50.666;9.150;2022-10-04T15:26:55;6.45;;;1.98;;
41693;SDS011;27377;50.666;9.150;2022-10-04T15:29:17;6.25;;;2.38;;
41693;SDS011;27377;50.666;9.150;2022-10-04T15:37:33;7.90;;;2.33;;
41693;SDS011;27377;50.666;9.150;2022-10-04T15:42:38;4.23;;;2.17;;
41693;SDS011;27377;50.666;9.150;2022-10-04T15:45:25;6.38;;;2.05;;
41693;SDS011;27377;50.666;9.150;2022-10-04T15:56:59;6.45;;;2.30;;
41693;SDS011;27377;50.666;9.150;2022-10-04T16:05:26;6.80;;;2.05;;
41693;SDS011;27377;50.666;9.150;2022-10-04T16:13:19;4.43;;;2.10;;
41693;SDS011;27377;50.666;9.150;2022-10-04T16:18:44;3.97;;;2.00;;
41693;SDS011;27377;50.666;9.150;2022-10-04T16:32:15;4.63;;;1.97;;
41693;SDS011;27377;50.666;9.150;2022-10-04T16:34:46;5.82;;;2.10;;
41693;SDS011;27377;50.666;9.150;2022-10-04T16:48:36;9.88;;;2.30;;
41693;SDS011;27377;50.666;9.150;2022-10-04T16:51:19;7.57;;;2.20;;
41693;SDS011;27377;50.666;9.150;2022-10-04T17:02:16;6.93;;;2.40;;
41693;SDS011;27377;50.666;9.150;2022-10-04T17:05:02;6.95;;;2.17;;
41693;SDS011;27377;50.666;9.150;2022-10-04T17:10:33;5.07;;;2.42;;
41693;SDS011;27377;50.666;9.150;2022-10-04T17:13:06;5.50;;;2.20;;
41693;SDS011;27377;50.666;9.150;2022-10-04T17:18:30;6.88;;;2.28;;
41693;SDS011;27377;50.666;9.150;2022-10-04T17:21:05;4.70;;;2.10;;
41693;SDS011;27377;50.666;9.150;2022-10-04T17:24:05;5.05;;;2.20;;
41693;SDS011;27377;50.666;9.150;2022-10-04T17:26:53;5.78;;;2.15;;
41693;SDS011;27377;50.666;9.150;2022-10-04T17:35:03;6.22;;;2.20;;
41693;SDS011;27377;50.666;9.150;2022-10-04T17:45:41;6.63;;;2.60;;
41693;SDS011;27377;50.666;9.150;2022-10-04T17:48:45;10.43;;;2.40;;
41693;SDS011;27377;50.666;9.150;2022-10-04T17:51:45;5.22;;;2.38;;
41693;SDS011;27377;50.666;9.150;2022-10-04T17:54:38;4.22;;;2.10;;
41693;SDS011;27377;50.666;9.150;2022-10-04T18:00:14;5.93;;;2.10;;
41693;SDS011;27377;50.666;9.150;2022-10-04T18:08:12;5.72;;;2.10;;
41693;SDS011;27377;50.666;9.150;2022-10-04T18:10:55;6.57;;;2.38;;
41693;SDS011;27377;50.666;9.150;2022-10-04T18:13:29;7.30;;;2.30;;
41693;SDS011;27377;50.666;9.150;2022-10-04T18:16:13;4.35;;;1.70;;
41693;SDS011;27377;50.666;9.150;2022-10-04T18:18:54;6.15;;;1.90;;
41693;SDS011;27377;50.666;9.150;2022-10-04T18:21:26;3.80;;;2.25;;
41693;SDS011;27377;50.666;9.150;2022-10-04T18:24:00;5.00;;;2.30;;
41693;SDS011;27377;50.666;9.150;2022-10-04T18:27:01;6.20;;;2.65;;
41693;SDS011;27377;50.666;9.150;2022-10-04T18:29:42;6.38;;;2.63;;
41693;SDS011;27377;50.666;9.150;2022-10-04T18:32:35;5.90;;;2.60;;
41693;SDS011;27377;50.666;9.150;2022-10-04T18:35:16;7.63;;;2.80;;
41693;SDS011;27377;50.666;9.150;2022-10-04T18:37:42;6.90;;;3.05;;
41693;SDS011;27377;50.666;9.150;2022-10-04T18:40:17;4.70;;;2.58;;
41693;SDS011;27377;50.666;9.150;2022-10-04T18:42:49;5.80;;;2.58;;
41693;SDS011;27377;50.666;9.150;2022-10-04T18:45:29;5.32;;;2.67;;
41693;SDS011;27377;50.666;9.150;2022-10-04T18:47:58;6.78;;;2.15;;
41693;SDS011;27377;50.666;9.150;2022-10-04T18:50:30;3.75;;;1.48;;
41693;SDS011;27377;50.666;9.150;2022-10-04T18:55:40;5.47;;;2.05;;
41693;SDS011;27377;50.666;9.150;2022-10-04T18:58:25;5.47;;;2.17;;
41693;SDS011;27377;50.666;9.150;2022-10-04T19:01:35;5.00;;;2.00;;
41693;SDS011;27377;50.666;9.150;2022-10-04T19:07:00;3.97;;;1.92;;
41693;SDS011;27377;50.666;9.150;2022-10-04T19:12:29;5.13;;;2.45;;
41693;SDS011;27377;50.666;9.150;2022-10-04T19:20:25;5.95;;;2.90;;
41693;SDS011;27377;50.666;9.150;2022-10-04T19:25:45;9.57;;;3.20;;
41693;SDS011;27377;50.666;9.150;2022-10-04T19:28:17;6.20;;;2.80;;
41693;SDS011;27377;50.666;9.150;2022-10-04T19:41:40;7.60;;;3.13;;
41693;SDS011;27377;50.666;9.150;2022-10-04T19:46:51;6.67;;;3.30;;
41693;SDS011;27377;50.666;9.150;2022-10-04T19:49:45;7.10;;;3.22;;
41693;SDS011;27377;50.666;9.150;2022-10-04T19:52:24;5.93;;;2.75;;
41693;SDS011;27377;50.666;9.150;2022-10-04T19:57:41;5.18;;;2.38;;
41693;SDS011;27377;50.666;9.150;2022-10-04T20:00:12;3.55;;;1.85;;
41693;SDS011;27377;50.666;9.150;2022-10-04T20:02:41;5.13;;;2.55;;
41693;SDS011;27377;50.666;9.150;2022-10-04T20:05:14;4.75;;;2.55;;
41693;SDS011;27377;50.666;9.150;2022-10-04T20:07:48;5.70;;;2.50;;
41693;SDS011;27377;50.666;9.150;2022-10-04T20:10:31;8.90;;;4.32;;
41693;SDS011;27377;50.666;9.150;2022-10-04T20:15:46;8.55;;;5.32;;
41693;SDS011;27377;50.666;9.150;2022-10-04T20:32:00;8.98;;;5.53;;
41693;SDS011;27377;50.666;9.150;2022-10-04T20:37:03;6.82;;;4.20;;
41693;SDS011;27377;50.666;9.150;2022-10-04T20:42:06;9.38;;;4.28;;
41693;SDS011;27377;50.666;9.150;2022-10-04T20:52:48;6.97;;;3.80;;
41693;SDS011;27377;50.666;9.150;2022-10-04T20:55:28;9.43;;;4.28;;
41693;SDS011;27377;50.666;9.150;2022-10-04T20:58:00;8.73;;;4.20;;
41693;SDS011;27377;50.666;9.150;2022-10-04T21:00:29;7.07;;;3.38;;
41693;SDS011;27377;50.666;9.150;2022-10-04T21:03:32;5.18;;;2.95;;
41693;SDS011;27377;50.666;9.150;2022-10-04T21:06:01;8.10;;;3.22;;
41693;SDS011;27377;50.666;9.150;2022-10-04T21:08:32;6.13;;;3.65;;
41693;SDS011;27377;50.666;9.150;2022-10-04T21:11:02;5.57;;;3.45;;
41693;SDS011;27377;50.666;9.150;2022-10-04T21:13:55;6.22;;;3.40;;
41693;SDS011;27377;50.666;9.150;2022-10-04T21:16:38;7.40;;;3.45;;
41693;SDS011;27377;50.666;9.150;2022-10-04T21:22:36;7.88;;;3.75;;
41693;SDS011;27377;50.666;9.150;2022-10-04T21:24:57;6.82;;;3.60;;
41693;SDS011;27377;50.666;9.150;2022-10-04T21:27:31;6.85;;;3.60;;
41693;SDS011;27377;50.666;9.150;2022-10-04T21:30:14;7.18;;;3.65;;
41693;SDS011;27377;50.666;9.150;2022-10-04T21:32:41;8.48;;;3.67;;
41693;SDS011;27377;50.666;9.150;2022-10-04T21:35:07;6.25;;;3.55;;
41693;SDS011;27377;50.666;9.150;2022-10-04T21:37:33;6.50;;;3.80;;
41693;SDS011;27377;50.666;9.150;2022-10-04T21:39:59;7.03;;;3.83;;
41693;SDS011;27377;50.666;9.150;2022-10-04T21:42:25;7.15;;;3.80;;
41693;SDS011;27377;50.666;9.150;2022-10-04T21:44:51;6.43;;;3.40;;
41693;SDS011;27377;50.666;9.150;2022-10-04T21:47:17;6.03;;;3.33;;
41693;SDS011;27377;50.666;9.150;2022-10-04T21:49:46;5.93;;;3.35;;
41693;SDS011;27377;50.666;9.150;2022-10-04T21:52:12;6.72;;;3.50;;
41693;SDS011;27377;50.666;9.150;2022-10-04T21:54:37;9.37;;;3.60;;
41693;SDS011;27377;50.666;9.150;2022-10-04T21:57:03;9.53;;;3.53;;
41693;SDS011;27377;50.666;9.150;2022-10-04T21:59:29;7.00;;;3.70;;
41693;SDS011;27377;50.666;9.150;2022-10-04T22:01:54;7.07;;;3.47;;
41693;SDS011;27377;50.666;9.150;2022-10-04T22:04:20;5.77;;;3.27;;
41693;SDS011;27377;50.666;9.150;2022-10-04T22:06:45;7.07;;;3.07;;
41693;SDS011;27377;50.666;9.150;2022-10-04T22:09:11;6.37;;;3.30;;
41693;SDS011;27377;50.666;9.150;2022-10-04T22:11:36;8.50;;;3.30;;
41693;SDS011;27377;50.666;9.150;2022-10-04T22:14:02;6.10;;;3.37;;
41693;SDS011;27377;50.666;9.150;2022-10-04T22:16:28;5.73;;;3.53;;
41693;SDS011;27377;50.666;9.150;2022-10-04T22:18:54;7.40;;;3.40;;
41693;SDS011;27377;50.666;9.150;2022-10-04T22:21:19;7.38;;;3.30;;
41693;SDS011;27377;50.666;9.150;2022-10-04T22:23:45;5.43;;;3.20;;
41693;SDS011;27377;50.666;9.150;2022-10-04T22:26:14;7.32;;;3.75;;
41693;SDS011;27377;50.666;9.150;2022-10-04T22:28:43;7.93;;;3.33;;
41693;SDS011;27377;50.666;9.150;2022-10-04T22:31:19;7.90;;;2.95;;
41693;SDS011;27377;50.666;9.150;2022-10-04T22:33:49;8.00;;;3.22;;
41693;SDS011;27377;50.666;9.150;2022-10-04T22:36:16;5.90;;;3.10;;
41693;SDS011;27377;50.666;9.150;2022-10-04T22:41:37;4.97;;;2.97;;
41693;SDS011;27377;50.666;9.150;2022-10-04T22:46:54;5.32;;;3.30;;
41693;SDS011;27377;50.666;9.150;2022-10-04T22:49:25;8.57;;;3.20;;
41693;SDS011;27377;50.666;9.150;2022-10-04T22:51:55;6.90;;;3.20;;
41693;SDS011;27377;50.666;9.150;2022-10-04T22:54:23;9.55;;;3.10;;
41693;SDS011;27377;50.666;9.150;2022-10-04T22:56:51;5.57;;;3.00;;
41693;SDS011;27377;50.666;9.150;2022-10-04T22:59:18;7.47;;;3.10;;
41693;SDS011;27377;50.666;9.150;2022-10-04T23:01:44;5.85;;;3.15;;
41693;SDS011;27377;50.666;9.150;2022-10-04T23:04:29;5.60;;;3.30;;
41693;SDS011;27377;50.666;9.150;2022-10-04T23:06:54;5.78;;;3.33;;
41693;SDS011;27377;50.666;9.150;2022-10-04T23:09:20;8.45;;;3.10;;
41693;SDS011;27377;50.666;9.150;2022-10-04T23:11:45;6.68;;;3.00;;
41693;SDS011;27377;50.666;9.150;2022-10-04T23:14:11;4.57;;;2.70;;
41693;SDS011;27377;50.666;9.150;2022-10-04T23:16:37;5.45;;;2.85;;
41693;SDS011;27377;50.666;9.150;2022-10-04T23:19:16;5.70;;;2.67;;
41693;SDS011;27377;50.666;9.150;2022-10-04T23:21:44;6.05;;;2.83;;
41693;SDS011;27377;50.666;9.150;2022-10-04T23:26:38;5.30;;;2.80;;
41693;SDS011;27377;50.666;9.150;2022-10-04T23:29:06;5.60;;;3.30;;
41693;SDS011;27377;50.666;9.150;2022-10-04T23:31:54;5.70;;;2.88;;
41693;SDS011;27377;50.666;9.150;2022-10-04T23:34:37;5.03;;;2.85;;
41693;SDS011;27377;50.666;9.150;2022-10-04T23:37:11;5.90;;;2.87;;
41693;SDS011;27377;50.666;9.150;2022-10-04T23:39:40;6.38;;;2.83;;
41693;SDS011;27377;50.666;9.150;2022-10-04T23:42:12;5.30;;;2.80;;
41693;SDS011;27377;50.666;9.150;2022-10-04T23:44:52;6.57;;;2.80;;
41693;SDS011;27377;50.666;9.150;2022-10-04T23:47:19;4.43;;;2.65;;
41693;SDS011;27377;50.666;9.150;2022-10-04T23:49:50;5.85;;;3.03;;
41693;SDS011;27377;50.666;9.150;2022-10-04T23:52:18;3.58;;;2.40;;
41693;SDS011;27377;50.666;9.150;2022-10-04T23:54:55;7.65;;;2.60;;
41693;SDS011;27377;50.666;9.150;2022-10-04T23:57:22;5.60;;;2.88;;
41693;SDS011;27377;50.666;9.150;2022-10-04T23:59:50;7.20;;;2.65;;
